Date,TemperatureHighF,TemperatureAvgF,TemperatureLowF,DewpointHighF,DewpointAvgF,DewpointLowF,HumidityHigh,HumidityAvg,HumidityLow,PressureMaxIn,PressureMinIn,WindSpeedMaxMPH,WindSpeedAvgMPH,GustSpeedMaxMPH,PrecipitationSumIn
2013-4-1,42.3,24.5,16.7,22.7,12.9,9.3,75,63,32,30.28,30.13,18,2,18,0.02
2013-4-2,52.3,34.0,15.8,26.7,19.9,8.4,78,58,33,30.24,30.16,8,2,11,0.06
2013-4-3,62.2,42.8,24.8,30.2,24.7,18.2,78,53,24,30.24,30.05,30,10,32,0.00
2013-4-4,64.0,47.9,37.0,38.1,28.0,19.9,75,50,19,30.11,30.01,21,8,22,0.00
2013-4-5,67.1,47.0,28.0,40.1,30.8,20.9,82,56,32,30.12,29.59,16,6,20,0.00
2013-4-6,70.5,55.8,41.0,43.5,38.7,31.3,87,55,30,29.75,29.50,30,12,40,0.02
2013-4-7,68.2,46.9,32.5,49.0,38.4,28.3,95,75,40,29.84,29.57,20,5,22,0.01
2013-4-8,75.6,52.1,33.4,54.7,44.3,32.0,99,79,41,29.80,29.56,27,6,28,0.00
2013-4-9,45.1,35.5,29.1,42.2,32.8,26.2,94,90,83,30.04,29.69,26,7,31,0.73
2013-4-10,35.6,32.9,30.6,31.8,29.8,28.2,94,89,83,29.98,29.76,12,2,12,0.26
2013-4-11,30.6,30.0,29.3,29.1,28.8,28.3,96,95,94,29.76,29.67,14,10,14,0.00
2013-4-12,33.1,31.9,30.6,29.7,26.4,23.9,91,80,69,29.92,29.66,24,17,24,0.00
2013-4-13,46.9,35.3,25.0,36.9,28.1,18.8,79,75,68,29.93,29.65,27,6,27,8.68
2013-4-14,56.1,46.7,37.6,49.7,39.7,30.4,90,77,55,29.63,29.22,27,12,27,0.05
2013-4-15,45.7,38.7,31.1,34.2,28.0,20.9,79,65,56,30.04,29.58,27,16,27,0.01
2013-4-16,51.4,40.1,31.3,31.3,27.8,25.0,81,63,41,30.18,30.02,19,8,19,0.00
2013-4-17,39.2,36.4,33.4,35.5,30.6,26.4,87,80,68,30.17,29.83,20,10,21,0.27
2013-4-18,34.2,31.7,29.5,29.6,27.8,22.9,88,85,76,29.87,29.70,34,22,36,0.15
2013-4-19,41.4,32.6,25.5,27.4,21.3,15.4,76,63,53,30.04,29.76,30,20,32,0.00
2013-4-20,43.0,33.2,22.6,27.1,22.4,15.6,77,65,50,30.18,30.04,8,3,9,0.00
2013-4-21,62.4,46.3,33.4,45.9,35.8,24.4,80,67,46,30.11,29.94,23,8,27,1.50
2013-4-22,41.9,34.9,27.3,35.9,30.1,21.4,85,82,77,30.22,30.00,21,7,21,0.09
2013-4-23,35.2,29.6,24.4,23.5,20.8,16.6,79,69,59,30.23,30.09,24,12,25,0.12
2013-4-24,54.5,36.9,26.4,39.2,27.1,16.9,78,68,52,30.10,29.93,35,12,39,0.06
2013-4-25,72.3,48.8,23.2,39.4,30.0,17.4,83,54,21,30.16,29.84,27,8,31,0.00
2013-4-26,78.1,60.8,39.9,42.5,36.3,30.5,80,44,19,30.11,29.89,24,6,34,0.00
2013-4-27,78.4,58.4,34.0,52.2,41.1,26.3,93,57,25,30.11,29.84,15,3,17,0.00
2013-4-28,88.7,75.1,55.4,53.0,46.9,38.2,78,40,17,29.85,29.59,21,10,23,0.00
2013-4-29,83.7,64.9,46.9,52.4,44.7,36.9,77,51,23,29.79,29.39,21,5,21,0.00
2013-4-30,73.9,64.3,53.2,55.3,40.1,20.1,69,45,14,29.96,29.34,36,11,36,0.01